Time;durP1;ratioP1;P1;durP2;ratioP2;P2;SDS_P1;SDS_P2;PMS_P1;PMS_P2;Temp;Humidity;BMP_temperature;BMP_pressure;BME280_temperature;BME280_humidity;BME280_pressure;Samples;Min_cycle;Max_cycle;Signal;HPM_P1;HPM_P2
2022/11/12 00:00:52;;;;;;;;;;;19.70;70.40;;;;;;5061734;28;1898;-70
2022/11/12 00:03:17;;;;;;;;;;;19.70;70.40;;;;;;5052304;28;1400;-70
2022/11/12 00:05:43;;;;;;;;;;;19.70;70.40;;;;;;5066186;28;969;-70
2022/11/12 00:08:08;;;;;;;;;;;19.70;70.40;;;;;;5067417;28;1274;-70
2022/11/12 00:10:34;;;;;;;;;;;19.70;70.40;;;;;;5066698;28;842;-70
2022/11/12 00:12:59;;;;;;;;;;;19.70;70.50;;;;;;5065477;28;860;-70
2022/11/12 00:15:25;;;;;;;;;;;19.70;70.50;;;;;;5062498;28;800;-69
2022/11/12 00:17:50;;;;;;;;;;;19.70;70.40;;;;;;5060423;28;1276;-69
2022/11/12 00:20:16;;;;;;;;;;;19.70;70.40;;;;;;5061711;28;1902;-69
2022/11/12 00:22:41;;;;;;;;;;;19.70;70.50;;;;;;5065447;28;863;-69
2022/11/12 00:25:07;;;;;;;;;;;19.70;70.50;;;;;;5068398;28;1200;-70
2022/11/12 00:27:32;;;;;;;;;;;19.70;70.50;;;;;;5065485;28;1350;-70
2022/11/12 00:29:58;;;;;;;;;;;19.70;70.50;;;;;;5053677;28;1656;-70
2022/11/12 00:32:23;;;;;;;;;;;19.70;70.50;;;;;;5069027;28;1310;-70
2022/11/12 00:34:49;;;;;;;;;;;19.70;70.50;;;;;;5056115;28;1232;-69
2022/11/12 00:37:15;;;;;;;;;;;19.70;70.50;;;;;;5068042;28;1387;-69
2022/11/12 00:39:41;;;;;;;;;;;19.70;70.50;;;;;;5036240;28;1513;-70
2022/11/12 00:42:06;;;;;;;;;;;19.70;70.60;;;;;;5066178;28;1997;-68
2022/11/12 00:44:32;;;;;;;;;;;19.70;70.50;;;;;;5052519;28;934;-69
2022/11/12 00:46:57;;;;;;;;;;;19.70;70.60;;;;;;5066598;28;939;-70
2022/11/12 00:49:23;;;;;;;;;;;19.70;70.50;;;;;;5065199;28;1281;-69
2022/11/12 00:51:48;;;;;;;;;;;19.70;70.60;;;;;;5062505;28;923;-69
2022/11/12 00:54:14;;;;;;;;;;;19.70;70.60;;;;;;5046885;28;831;-69
2022/11/12 00:56:39;;;;;;;;;;;19.70;70.60;;;;;;5062308;28;827;-69
2022/11/12 00:59:05;;;;;;;;;;;19.70;70.60;;;;;;5063304;28;1257;-69
2022/11/12 01:01:30;;;;;;;;;;;19.70;70.60;;;;;;5048841;28;1973;-69
2022/11/12 01:03:56;;;;;;;;;;;19.70;70.60;;;;;;5066290;28;875;-69
2022/11/12 01:06:22;;;;;;;;;;;19.70;70.60;;;;;;5062662;28;1693;-69
2022/11/12 01:08:47;;;;;;;;;;;19.70;70.60;;;;;;5028884;28;1244;-69
2022/11/12 01:11:13;;;;;;;;;;;19.60;70.60;;;;;;5061396;28;990;-69
2022/11/12 01:13:39;;;;;;;;;;;19.70;70.60;;;;;;5063603;28;1017;-69
2022/11/12 01:16:14;;;;;;;;;;;19.70;70.60;;;;;;5052652;28;898;-69
2022/11/12 01:18:40;;;;;;;;;;;19.60;70.50;;;;;;5061145;28;1380;-69
2022/11/12 01:21:05;;;;;;;;;;;19.70;70.60;;;;;;5069018;28;1896;-69
2022/11/12 01:23:31;;;;;;;;;;;19.60;70.60;;;;;;5053104;28;1077;-69
2022/11/12 01:25:57;;;;;;;;;;;19.60;70.60;;;;;;5062327;28;835;-70
2022/11/12 01:28:22;;;;;;;;;;;19.60;70.60;;;;;;5053400;28;1345;-70
2022/11/12 01:30:48;;;;;;;;;;;19.60;70.60;;;;;;5053793;28;886;-70
2022/11/12 01:33:13;;;;;;;;;;;19.60;70.60;;;;;;5060390;28;867;-70
2022/11/12 01:35:39;;;;;;;;;;;19.60;70.60;;;;;;5064620;28;735;-70
2022/11/12 01:38:04;;;;;;;;;;;19.60;70.60;;;;;;5070271;28;1313;-70
2022/11/12 01:40:31;;;;;;;;;;;19.60;70.60;;;;;;5057678;28;1890;-70
2022/11/12 01:42:56;;;;;;;;;;;19.70;70.70;;;;;;5046148;28;1264;-70
2022/11/12 01:45:22;;;;;;;;;;;19.60;70.60;;;;;;5064585;28;1068;-68
2022/11/12 01:47:48;;;;;;;;;;;19.60;70.60;;;;;;5061778;28;1331;-69
2022/11/12 01:50:24;;;;;;;;;;;19.60;70.60;;;;;;5045994;28;967;-70
2022/11/12 01:52:51;;;;;;;;;;;19.60;70.70;;;;;;5049125;28;1340;-69
2022/11/12 01:55:24;;;;;;;;;;;19.60;70.60;;;;;;5065499;28;915;-69
2022/11/12 01:57:50;;;;;;;;;;;19.60;70.70;;;;;;5045778;28;1260;-69
2022/11/12 02:00:16;;;;;;;;;;;19.60;70.70;;;;;;5028434;28;1969;-69
2022/11/12 02:02:42;;;;;;;;;;;19.60;70.70;;;;;;5064492;28;1352;-70
2022/11/12 02:05:08;;;;;;;;;;;19.60;70.70;;;;;;5043136;28;828;-70
2022/11/12 02:07:34;;;;;;;;;;;19.60;70.70;;;;;;5050737;28;1268;-69
2022/11/12 02:10:00;;;;;;;;;;;19.60;70.70;;;;;;5066735;28;946;-69
2022/11/12 02:15:09;;;;;;;;;;;19.60;70.70;;;;;;5053226;28;836;-69
2022/11/12 02:17:35;;;;;;;;;;;19.60;70.70;;;;;;5061452;28;1271;-69
2022/11/12 02:20:00;;;;;;;;;;;19.60;70.70;;;;;;5062691;28;1949;-69
2022/11/12 02:22:26;;;;;;;;;;;19.60;70.70;;;;;;5063421;28;865;-69
2022/11/12 02:24:51;;;;;;;;;;;19.60;70.80;;;;;;5062309;28;1001;-69
2022/11/12 02:27:17;;;;;;;;;;;19.60;71.50;;;;;;5061521;28;866;-68
2022/11/12 02:29:45;;;;;;;;;;;19.60;70.70;;;;;;5050910;28;1374;-68
2022/11/12 02:32:11;;;;;;;;;;;19.60;70.70;;;;;;5061685;28;1233;-69
2022/11/12 02:34:38;;;;;;;;;;;19.60;70.70;;;;;;5047448;28;1295;-69
2022/11/12 02:37:06;;;;;;;;;;;19.60;70.70;;;;;;5062990;28;874;-69
2022/11/12 02:39:31;;;;;;;;;;;19.60;70.70;;;;;;5059986;28;1345;-70
2022/11/12 02:41:57;;;;;;;;;;;19.60;70.70;;;;;;5049590;28;1906;-70
2022/11/12 02:44:22;;;;;;;;;;;19.60;70.70;;;;;;5063949;28;902;-69
2022/11/12 02:46:48;;;;;;;;;;;19.60;70.70;;;;;;5049934;28;839;-70
2022/11/12 02:49:13;;;;;;;;;;;19.60;70.80;;;;;;5063805;28;1216;-70
2022/11/12 02:51:39;;;;;;;;;;;19.60;70.80;;;;;;5063366;28;1013;-71
2022/11/12 02:54:04;;;;;;;;;;;19.60;70.80;;;;;;5042107;28;1231;-70
2022/11/12 02:56:30;;;;;;;;;;;19.60;70.80;;;;;;5061444;28;934;-70
2022/11/12 02:58:55;;;;;;;;;;;19.60;70.80;;;;;;5059571;28;1319;-71
2022/11/12 03:01:21;;;;;;;;;;;19.60;70.80;;;;;;5063047;28;1961;-70
2022/11/12 03:03:46;;;;;;;;;;;19.60;70.80;;;;;;5051111;28;1465;-70
2022/11/12 03:06:11;;;;;;;;;;;19.60;70.80;;;;;;5061060;28;858;-69
2022/11/12 03:08:37;;;;;;;;;;;19.60;70.80;;;;;;5062272;28;1256;-70
2022/11/12 03:11:06;;;;;;;;;;;19.60;70.80;;;;;;5061230;28;1049;-69
2022/11/12 03:13:32;;;;;;;;;;;19.60;70.80;;;;;;5064393;28;886;-70
2022/11/12 03:15:58;;;;;;;;;;;19.60;70.80;;;;;;5062108;28;1009;-69
2022/11/12 03:18:23;;;;;;;;;;;19.60;70.80;;;;;;5033955;28;1836;-68
2022/11/12 03:20:50;;;;;;;;;;;19.60;70.80;;;;;;5060118;28;1975;-71
2022/11/12 03:23:16;;;;;;;;;;;19.60;70.80;;;;;;5065302;28;834;-70
2022/11/12 03:25:41;;;;;;;;;;;19.60;70.80;;;;;;5062639;28;931;-70
2022/11/12 03:28:10;;;;;;;;;;;19.60;70.80;;;;;;5049650;28;1242;-71
2022/11/12 03:30:37;;;;;;;;;;;19.60;70.80;;;;;;5049211;28;898;-70
2022/11/12 03:33:02;;;;;;;;;;;19.60;70.80;;;;;;5051817;28;1458;-70
2022/11/12 03:35:28;;;;;;;;;;;19.60;70.80;;;;;;5044744;28;997;-70
2022/11/12 03:37:53;;;;;;;;;;;19.60;70.80;;;;;;5066415;28;1289;-70
2022/11/12 03:40:18;;;;;;;;;;;19.60;70.80;;;;;;5064433;28;1959;-70
2022/11/12 03:42:47;;;;;;;;;;;19.60;70.80;;;;;;5053656;28;832;-70
2022/11/12 03:45:13;;;;;;;;;;;19.60;70.80;;;;;;5066162;28;1025;-69
2022/11/12 03:47:40;;;;;;;;;;;19.60;70.80;;;;;;5066324;28;1247;-70
2022/11/12 03:50:06;;;;;;;;;;;19.60;70.80;;;;;;5067842;28;951;-69
2022/11/12 03:52:32;;;;;;;;;;;19.60;70.80;;;;;;5066060;28;855;-70
2022/11/12 03:54:57;;;;;;;;;;;19.60;70.70;;;;;;5063469;28;855;-69
2022/11/12 03:57:23;;;;;;;;;;;19.60;70.80;;;;;;5065495;28;1246;-69
2022/11/12 03:59:48;;;;;;;;;;;19.60;70.80;;;;;;5064598;28;1034;-69
2022/11/12 04:02:13;;;;;;;;;;;19.60;70.80;;;;;;5068984;28;1898;-69
2022/11/12 04:10:07;;;;;;;;;;;19.60;70.80;;;;;;5062949;28;783;-69
2022/11/12 04:15:17;;;;;;;;;;;19.60;70.80;;;;;;5066726;28;762;-69
2022/11/12 04:23:10;;;;;;;;;;;19.60;70.80;;;;;;5065080;28;799;-70
2022/11/12 04:28:20;;;;;;;;;;;19.60;70.80;;;;;;5055201;28;1310;-70
2022/11/12 04:30:46;;;;;;;;;;;19.60;70.90;;;;;;5066621;28;880;-71
2022/11/12 04:33:11;;;;;;;;;;;19.60;70.80;;;;;;5067732;28;879;-70
2022/11/12 04:35:37;;;;;;;;;;;19.60;70.80;;;;;;5064598;28;872;-70
2022/11/12 04:38:02;;;;;;;;;;;19.60;70.80;;;;;;5064827;28;1256;-70
2022/11/12 04:45:57;;;;;;;;;;;19.60;70.80;;;;;;5052953;28;782;-70
2022/11/12 04:48:22;;;;;;;;;;;19.60;70.80;;;;;;5049810;28;1267;-70
2022/11/12 04:50:48;;;;;;;;;;;19.60;70.80;;;;;;5047157;28;851;-70
2022/11/12 04:53:14;;;;;;;;;;;19.60;70.80;;;;;;5051734;28;899;-69
2022/11/12 04:55:40;;;;;;;;;;;19.60;70.80;;;;;;5058504;28;876;-69
2022/11/12 04:58:05;;;;;;;;;;;19.60;70.80;;;;;;5064947;28;1352;-69
2022/11/12 05:00:30;;;;;;;;;;;19.60;70.80;;;;;;5049581;28;1894;-70
2022/11/12 05:02:56;;;;;;;;;;;19.60;70.90;;;;;;5068742;28;1364;-69
2022/11/12 05:05:21;;;;;;;;;;;19.60;70.90;;;;;;5066964;28;981;-71
2022/11/12 05:07:47;;;;;;;;;;;19.60;70.90;;;;;;5064227;28;1328;-71
2022/11/12 05:10:12;;;;;;;;;;;19.60;70.90;;;;;;5052712;28;868;-71
2022/11/12 05:12:38;;;;;;;;;;;19.60;70.80;;;;;;5046692;28;924;-70
2022/11/12 05:15:03;;;;;;;;;;;19.60;70.90;;;;;;5052367;28;1634;-71
2022/11/12 05:17:29;;;;;;;;;;;19.60;70.80;;;;;;5049469;28;1377;-70
2022/11/12 05:19:54;;;;;;;;;;;19.60;70.70;;;;;;5064948;28;913;-70
2022/11/12 05:22:20;;;;;;;;;;;19.60;70.70;;;;;;5066146;28;1965;-69
2022/11/12 05:24:45;;;;;;;;;;;19.70;70.70;;;;;;5049420;28;1171;-69
2022/11/12 05:27:17;;;;;;;;;;;19.70;70.60;;;;;;5066823;28;878;-70
2022/11/12 05:29:43;;;;;;;;;;;19.70;70.50;;;;;;5053331;28;1253;-71
2022/11/12 05:32:09;;;;;;;;;;;19.70;70.40;;;;;;5064414;28;986;-71
2022/11/12 05:34:35;;;;;;;;;;;19.80;70.40;;;;;;5064139;28;875;-70
2022/11/12 05:37:00;;;;;;;;;;;19.80;70.30;;;;;;5062282;28;900;-69
2022/11/12 05:39:26;;;;;;;;;;;19.80;70.20;;;;;;5047142;28;1325;-70
2022/11/12 05:41:51;;;;;;;;;;;19.80;70.10;;;;;;5068183;28;1949;-69
2022/11/12 05:44:17;;;;;;;;;;;19.80;70.10;;;;;;5063946;28;881;-69
2022/11/12 05:46:42;;;;;;;;;;;19.80;70.00;;;;;;5063710;28;800;-69
2022/11/12 05:49:08;;;;;;;;;;;19.80;69.90;;;;;;5061565;28;1427;-69
2022/11/12 05:51:33;;;;;;;;;;;19.80;69.80;;;;;;5061284;28;911;-70
2022/11/12 05:53:59;;;;;;;;;;;19.90;69.80;;;;;;5062938;28;907;-69
2022/11/12 05:56:24;;;;;;;;;;;19.90;69.80;;;;;;5060134;28;818;-70
2022/11/12 05:58:50;;;;;;;;;;;19.90;69.70;;;;;;5062506;28;1346;-70
2022/11/12 06:01:15;;;;;;;;;;;19.90;69.70;;;;;;5062029;28;1930;-70
2022/11/12 06:03:41;;;;;;;;;;;19.90;69.60;;;;;;5065918;28;1524;-69
2022/11/12 06:06:06;;;;;;;;;;;19.90;69.60;;;;;;5061246;28;863;-69
2022/11/12 06:08:32;;;;;;;;;;;19.90;69.60;;;;;;5045417;28;1248;-70
2022/11/12 06:10:57;;;;;;;;;;;20.00;69.60;;;;;;5065166;28;1303;-69
2022/11/12 06:13:23;;;;;;;;;;;19.90;69.50;;;;;;5066446;28;1476;-69
2022/11/12 06:15:48;;;;;;;;;;;20.00;69.50;;;;;;5064901;28;1377;-69
2022/11/12 06:18:14;;;;;;;;;;;20.00;69.40;;;;;;5065750;28;1359;-69
2022/11/12 06:20:39;;;;;;;;;;;20.00;69.40;;;;;;5052616;28;1953;-67
2022/11/12 06:23:05;;;;;;;;;;;20.00;69.40;;;;;;5057846;28;1321;-67
2022/11/12 06:25:30;;;;;;;;;;;20.00;69.40;;;;;;5065315;28;1418;-67
2022/11/12 06:27:56;;;;;;;;;;;20.00;69.40;;;;;;5053700;28;1841;-70
2022/11/12 06:30:21;;;;;;;;;;;20.00;69.40;;;;;;5052579;28;1637;-69
2022/11/12 06:32:47;;;;;;;;;;;20.00;69.40;;;;;;5070604;28;1392;-70
2022/11/12 06:35:13;;;;;;;;;;;20.00;69.40;;;;;;5052872;28;1092;-69
2022/11/12 06:37:38;;;;;;;;;;;20.00;69.40;;;;;;5048027;28;1275;-70
2022/11/12 06:40:04;;;;;;;;;;;20.00;69.40;;;;;;5065363;28;882;-69
2022/11/12 06:42:29;;;;;;;;;;;20.00;69.40;;;;;;5064751;28;1902;-71
2022/11/12 06:44:55;;;;;;;;;;;19.90;69.40;;;;;;5052953;28;1378;-69
2022/11/12 06:47:20;;;;;;;;;;;19.90;69.40;;;;;;5066946;28;1491;-70
2022/11/12 06:49:46;;;;;;;;;;;20.00;69.40;;;;;;5049329;28;1171;-70
2022/11/12 06:52:11;;;;;;;;;;;19.90;69.40;;;;;;5064248;28;914;-70
2022/11/12 06:54:36;;;;;;;;;;;19.90;69.40;;;;;;5063977;28;990;-69
2022/11/12 06:57:02;;;;;;;;;;;19.90;69.40;;;;;;5062010;28;799;-70
2022/11/12 06:59:27;;;;;;;;;;;19.90;69.50;;;;;;5043680;28;1292;-69
2022/11/12 07:01:53;;;;;;;;;;;19.90;69.50;;;;;;5060950;28;1902;-69
2022/11/12 07:04:18;;;;;;;;;;;19.90;69.50;;;;;;5062204;28;1338;-70
2022/11/12 07:06:44;;;;;;;;;;;19.90;69.50;;;;;;5064450;28;869;-70
2022/11/12 07:09:10;;;;;;;;;;;19.90;69.50;;;;;;5064409;28;1255;-70
2022/11/12 07:11:36;;;;;;;;;;;19.90;69.60;;;;;;5053610;28;784;-69
2022/11/12 07:14:03;;;;;;;;;;;19.90;69.60;;;;;;5054734;28;880;-70
2022/11/12 07:16:29;;;;;;;;;;;19.90;69.60;;;;;;5067428;28;1378;-69
2022/11/12 07:18:54;;;;;;;;;;;19.90;69.60;;;;;;5065810;28;1278;-69
2022/11/12 07:21:20;;;;;;;;;;;19.90;69.60;;;;;;5064600;28;1906;-69
2022/11/12 07:23:45;;;;;;;;;;;19.90;69.70;;;;;;5069887;28;824;-68
2022/11/12 07:26:12;;;;;;;;;;;19.90;69.70;;;;;;5069980;28;1207;-68
2022/11/12 07:28:37;;;;;;;;;;;19.90;69.70;;;;;;5036912;28;4037;-67
2022/11/12 07:31:03;;;;;;;;;;;19.90;69.70;;;;;;5055166;28;1362;-68
2022/11/12 07:33:29;;;;;;;;;;;19.90;69.70;;;;;;5066161;28;1272;-69
2022/11/12 07:36:01;;;;;;;;;;;19.90;69.80;;;;;;5066955;28;1469;-68
2022/11/12 07:38:27;;;;;;;;;;;19.90;69.80;;;;;;5066040;28;1341;-68
2022/11/12 07:41:04;;;;;;;;;;;19.90;69.80;;;;;;5067642;28;1963;-68
2022/11/12 07:43:30;;;;;;;;;;;19.80;69.70;;;;;;5055063;28;1384;-69
2022/11/12 07:46:04;;;;;;;;;;;19.80;69.80;;;;;;5049987;28;1414;-68
2022/11/12 07:48:30;;;;;;;;;;;19.80;69.80;;;;;;5066379;28;1388;-68
2022/11/12 07:51:00;;;;;;;;;;;19.80;70.60;;;;;;5065673;28;1339;-69
2022/11/12 07:53:26;;;;;;;;;;;19.80;69.80;;;;;;5065435;28;1415;-67
2022/11/12 07:55:52;;;;;;;;;;;19.80;69.90;;;;;;5066937;28;1403;-68
2022/11/12 07:58:18;;;;;;;;;;;19.80;69.90;;;;;;5065553;28;1429;-69
2022/11/12 08:00:43;;;;;;;;;;;19.80;70.00;;;;;;5067932;28;1959;-69
2022/11/12 08:03:09;;;;;;;;;;;19.80;70.00;;;;;;5065021;28;1961;-68
2022/11/12 08:05:34;;;;;;;;;;;19.80;70.00;;;;;;5065074;28;1362;-68
2022/11/12 08:07:59;;;;;;;;;;;19.80;70.00;;;;;;5065470;28;1474;-69
2022/11/12 08:10:25;;;;;;;;;;;19.80;70.00;;;;;;5066238;28;1257;-69
2022/11/12 08:12:50;;;;;;;;;;;19.80;70.00;;;;;;5068314;28;907;-68
2022/11/12 08:15:16;;;;;;;;;;;19.80;70.00;;;;;;5066549;28;909;-69
2022/11/12 08:17:41;;;;;;;;;;;19.80;70.10;;;;;;5063836;28;1361;-69
2022/11/12 08:20:07;;;;;;;;;;;19.80;70.10;;;;;;5068194;28;902;-68
2022/11/12 08:22:32;;;;;;;;;;;19.80;70.10;;;;;;5063723;28;1901;-67
2022/11/12 08:24:58;;;;;;;;;;;19.80;70.10;;;;;;5065788;28;778;-69
2022/11/12 08:27:23;;;;;;;;;;;19.80;70.10;;;;;;5065070;28;1341;-69
2022/11/12 08:29:49;;;;;;;;;;;19.80;70.20;;;;;;5065155;28;876;-68
2022/11/12 08:32:14;;;;;;;;;;;19.80;70.20;;;;;;5052525;28;1062;-69
2022/11/12 08:34:42;;;;;;;;;;;19.80;70.20;;;;;;5065893;28;813;-69
2022/11/12 08:37:08;;;;;;;;;;;19.80;70.20;;;;;;5064854;28;994;-68
2022/11/12 08:39:33;;;;;;;;;;;19.80;70.20;;;;;;5070673;28;1325;-68
2022/11/12 08:41:58;;;;;;;;;;;19.80;70.20;;;;;;5065206;28;1967;-68
2022/11/12 08:44:24;;;;;;;;;;;19.80;70.20;;;;;;5046870;28;1033;-69
2022/11/12 08:46:49;;;;;;;;;;;19.80;70.20;;;;;;5066249;28;752;-67
2022/11/12 08:49:15;;;;;;;;;;;19.80;70.20;;;;;;5065423;28;1211;-69
2022/11/12 08:51:40;;;;;;;;;;;19.80;70.10;;;;;;5064224;28;902;-70
2022/11/12 08:54:06;;;;;;;;;;;19.80;70.10;;;;;;5064144;28;875;-69
2022/11/12 08:56:32;;;;;;;;;;;19.80;70.10;;;;;;5066939;28;807;-68
2022/11/12 08:58:58;;;;;;;;;;;19.80;70.10;;;;;;5066140;28;1253;-68
2022/11/12 09:01:23;;;;;;;;;;;19.80;70.00;;;;;;5065602;28;1897;-68
2022/11/12 09:03:49;;;;;;;;;;;19.80;70.00;;;;;;5067412;28;867;-68
2022/11/12 09:06:14;;;;;;;;;;;19.80;70.00;;;;;;5065324;28;922;-68
2022/11/12 09:08:40;;;;;;;;;;;19.80;69.90;;;;;;5066501;28;1283;-68
2022/11/12 09:11:05;;;;;;;;;;;19.80;70.60;;;;;;5050087;28;1010;-69
2022/11/12 09:13:31;;;;;;;;;;;19.80;69.80;;;;;;5064928;28;803;-68
2022/11/12 09:16:03;;;;;;;;;;;19.80;69.80;;;;;;5067165;28;855;-68
2022/11/12 09:18:28;;;;;;;;;;;19.90;69.80;;;;;;5051491;28;1381;-68
2022/11/12 09:20:57;;;;;;;;;;;19.80;69.80;;;;;;5061324;28;1909;-68
2022/11/12 09:23:23;;;;;;;;;;;19.90;69.80;;;;;;5045634;28;880;-68
2022/11/12 09:25:48;;;;;;;;;;;19.90;69.80;;;;;;5065137;28;839;-68
2022/11/12 09:28:15;;;;;;;;;;;19.80;69.70;;;;;;5062277;28;1294;-68
2022/11/12 09:30:41;;;;;;;;;;;19.90;69.80;;;;;;5045179;28;914;-68
2022/11/12 09:33:07;;;;;;;;;;;19.90;69.80;;;;;;5060108;28;1453;-68
2022/11/12 09:35:32;;;;;;;;;;;19.90;69.80;;;;;;5065712;28;889;-68
2022/11/12 09:37:58;;;;;;;;;;;19.90;69.80;;;;;;5063486;28;1230;-68
2022/11/12 09:40:29;;;;;;;;;;;19.90;69.80;;;;;;5060329;28;1913;-68
2022/11/12 09:42:54;;;;;;;;;;;19.90;69.80;;;;;;5062003;28;810;-68
2022/11/12 09:45:23;;;;;;;;;;;19.90;69.80;;;;;;5064210;28;1292;-68
2022/11/12 09:47:50;;;;;;;;;;;19.90;69.80;;;;;;5059146;28;1282;-68
2022/11/12 09:50:25;;;;;;;;;;;19.90;69.80;;;;;;5063946;28;895;-68
2022/11/12 09:52:53;;;;;;;;;;;19.90;69.80;;;;;;5063461;28;835;-68
2022/11/12 09:55:33;;;;;;;;;;;19.90;69.90;;;;;;5065282;28;886;-68
2022/11/12 09:57:58;;;;;;;;;;;19.90;69.90;;;;;;5047905;28;1349;-69
2022/11/12 10:00:24;;;;;;;;;;;19.80;69.80;;;;;;5065651;28;1890;-68
2022/11/12 10:03:09;;;;;;;;;;;19.90;69.90;;;;;;5063731;28;1386;-68
2022/11/12 10:05:38;;;;;;;;;;;19.80;69.80;;;;;;5021401;28;1091;-68
2022/11/12 10:08:12;;;;;;;;;;;19.80;69.90;;;;;;5063146;28;1578;-68
2022/11/12 10:10:47;;;;;;;;;;;19.80;69.90;;;;;;5061852;28;838;-68
2022/11/12 10:13:31;;;;;;;;;;;19.80;69.90;;;;;;5050159;28;864;-68
2022/11/12 10:18:42;;;;;;;;;;;19.80;70.00;;;;;;5061725;28;1353;-68
2022/11/12 10:21:37;;;;;;;;;;;19.80;70.00;;;;;;5066516;28;1933;-68
2022/11/12 10:24:05;;;;;;;;;;;19.80;70.10;;;;;;5046587;28;1272;-68
2022/11/12 10:26:31;;;;;;;;;;;19.80;70.10;;;;;;5050541;28;824;-69
2022/11/12 10:29:01;;;;;;;;;;;19.80;70.00;;;;;;5063486;28;1359;-69
2022/11/12 10:31:27;;;;;;;;;;;19.80;70.10;;;;;;5046772;28;1374;-68
2022/11/12 10:34:04;;;;;;;;;;;19.80;70.10;;;;;;5026894;28;823;-69
2022/11/12 10:36:30;;;;;;;;;;;19.80;70.10;;;;;;5049778;28;1017;-69
2022/11/12 10:38:56;;;;;;;;;;;19.80;70.10;;;;;;5049227;28;1357;-69
2022/11/12 10:41:32;;;;;;;;;;;19.80;70.10;;;;;;5050651;28;1961;-68
2022/11/12 10:43:58;;;;;;;;;;;19.80;70.10;;;;;;5047407;28;831;-70
2022/11/12 10:46:23;;;;;;;;;;;19.80;70.20;;;;;;5062828;28;835;-69
2022/11/12 10:48:53;;;;;;;;;;;19.80;70.20;;;;;;5062246;28;1263;-69
2022/11/12 10:51:22;;;;;;;;;;;19.80;70.20;;;;;;5042073;28;1096;-68
2022/11/12 10:53:47;;;;;;;;;;;19.80;70.20;;;;;;5049313;28;812;-68
2022/11/12 10:56:24;;;;;;;;;;;19.80;70.20;;;;;;5066029;28;860;-68
2022/11/12 10:59:10;;;;;;;;;;;19.80;70.30;;;;;;5061509;28;1249;-68
2022/11/12 11:01:35;;;;;;;;;;;19.80;70.30;;;;;;5062035;28;1894;-68
2022/11/12 11:04:00;;;;;;;;;;;19.80;70.30;;;;;;5050645;28;819;-68
2022/11/12 11:06:26;;;;;;;;;;;19.80;70.30;;;;;;5064125;28;1375;-68
2022/11/12 11:08:52;;;;;;;;;;;19.80;70.30;;;;;;5045416;28;1346;-68
2022/11/12 11:11:19;;;;;;;;;;;19.80;70.30;;;;;;5045595;28;1022;-68
2022/11/12 11:13:45;;;;;;;;;;;19.80;70.30;;;;;;5050700;28;1285;-68
2022/11/12 11:16:13;;;;;;;;;;;19.80;70.40;;;;;;5048828;28;899;-68
2022/11/12 11:18:40;;;;;;;;;;;19.70;70.30;;;;;;5062028;28;1263;-68
2022/11/12 11:21:28;;;;;;;;;;;19.70;70.30;;;;;;5050623;28;1905;-68
2022/11/12 11:24:00;;;;;;;;;;;19.70;70.40;;;;;;5047423;28;808;-68
2022/11/12 11:26:28;;;;;;;;;;;19.70;70.40;;;;;;5044344;28;1564;-68
2022/11/12 11:29:14;;;;;;;;;;;19.70;70.40;;;;;;5049435;28;1269;-68
2022/11/12 11:31:52;;;;;;;;;;;19.70;70.40;;;;;;5060682;28;1496;-68
2022/11/12 11:34:20;;;;;;;;;;;19.70;70.40;;;;;;5048299;28;2115;-69
2022/11/12 11:36:46;;;;;;;;;;;19.70;70.40;;;;;;5059819;28;1401;-68
2022/11/12 11:39:16;;;;;;;;;;;19.70;70.40;;;;;;5061575;28;1578;-68
2022/11/12 11:42:01;;;;;;;;;;;19.70;70.50;;;;;;5064391;28;1902;-68
2022/11/12 11:44:38;;;;;;;;;;;19.70;70.50;;;;;;5044715;28;2103;-69
2022/11/12 11:47:13;;;;;;;;;;;19.70;70.50;;;;;;5064556;28;1547;-69
2022/11/12 11:49:43;;;;;;;;;;;19.70;70.50;;;;;;5050031;28;1380;-69
2022/11/12 11:52:27;;;;;;;;;;;19.70;70.50;;;;;;5050807;28;831;-69
2022/11/12 11:55:05;;;;;;;;;;;19.70;70.50;;;;;;5063292;28;966;-69
2022/11/12 11:57:38;;;;;;;;;;;19.70;70.50;;;;;;5060592;28;1251;-70
2022/11/12 12:00:08;;;;;;;;;;;19.70;70.60;;;;;;5050955;28;924;-69
2022/11/12 12:02:42;;;;;;;;;;;19.70;70.60;;;;;;5050441;28;1903;-69
2022/11/12 12:05:26;;;;;;;;;;;19.70;70.60;;;;;;5067310;28;871;-69
2022/11/12 12:08:11;;;;;;;;;;;19.70;70.60;;;;;;5064649;28;1298;-69
2022/11/12 12:10:37;;;;;;;;;;;19.70;70.60;;;;;;5052590;28;843;-69
2022/11/12 12:13:05;;;;;;;;;;;19.70;70.60;;;;;;5061508;28;851;-69
2022/11/12 12:15:30;;;;;;;;;;;19.70;70.60;;;;;;5066037;28;812;-70
2022/11/12 12:18:12;;;;;;;;;;;19.70;70.70;;;;;;5068156;28;1228;-69
2022/11/12 12:20:43;;;;;;;;;;;19.70;70.70;;;;;;5049966;28;1960;-69
2022/11/12 12:23:13;;;;;;;;;;;19.70;70.70;;;;;;5062850;28;831;-69
2022/11/12 12:25:39;;;;;;;;;;;19.70;70.70;;;;;;5052037;28;1120;-69
2022/11/12 12:28:07;;;;;;;;;;;19.70;70.70;;;;;;5050267;28;1310;-69
2022/11/12 12:30:34;;;;;;;;;;;19.60;70.60;;;;;;5053758;28;958;-69
2022/11/12 12:33:05;;;;;;;;;;;19.60;70.60;;;;;;5047962;28;1367;-70
2022/11/12 12:35:46;;;;;;;;;;;19.60;70.70;;;;;;5052815;28;881;-69
2022/11/12 12:38:27;;;;;;;;;;;19.60;70.70;;;;;;5051380;28;1352;-70
2022/11/12 12:40:52;;;;;;;;;;;19.60;70.70;;;;;;5065587;28;1894;-70
2022/11/12 12:43:18;;;;;;;;;;;19.60;70.70;;;;;;5060946;28;848;-69
2022/11/12 12:45:44;;;;;;;;;;;19.60;70.70;;;;;;5064392;28;822;-70
2022/11/12 12:48:14;;;;;;;;;;;19.60;70.80;;;;;;5064943;28;1776;-69
2022/11/12 12:50:40;;;;;;;;;;;19.60;70.70;;;;;;5047038;28;1271;-70
2022/11/12 12:53:11;;;;;;;;;;;19.60;70.70;;;;;;5064916;28;1060;-69
2022/11/12 12:55:40;;;;;;;;;;;19.60;70.70;;;;;;5064223;28;868;-70
2022/11/12 12:58:26;;;;;;;;;;;19.60;70.70;;;;;;5051972;28;1248;-70
2022/11/12 13:00:53;;;;;;;;;;;19.60;70.80;;;;;;5047749;28;1898;-70
2022/11/12 13:03:37;;;;;;;;;;;19.60;70.80;;;;;;5053273;28;1408;-69
2022/11/12 13:06:06;;;;;;;;;;;19.60;70.80;;;;;;5062267;28;1066;-70
2022/11/12 13:08:33;;;;;;;;;;;19.60;70.80;;;;;;5051188;28;1277;-69
2022/11/12 13:10:58;;;;;;;;;;;19.60;70.90;;;;;;5046723;28;1303;-69
2022/11/12 13:13:34;;;;;;;;;;;19.60;70.80;;;;;;5053379;28;868;-69
2022/11/12 13:15:59;;;;;;;;;;;19.60;70.90;;;;;;5052016;28;1042;-69
2022/11/12 13:18:37;;;;;;;;;;;19.60;70.80;;;;;;5052283;28;1261;-69
2022/11/12 13:21:15;;;;;;;;;;;19.60;70.90;;;;;;5066258;28;1957;-69
2022/11/12 13:24:04;;;;;;;;;;;19.60;70.90;;;;;;5066051;28;1001;-70
2022/11/12 13:26:43;;;;;;;;;;;19.60;70.90;;;;;;5062813;28;1250;-69
2022/11/12 13:29:20;;;;;;;;;;;19.60;70.90;;;;;;5064454;28;1248;-69
2022/11/12 13:31:46;;;;;;;;;;;19.60;70.90;;;;;;5065444;28;1377;-69
2022/11/12 13:34:40;;;;;;;;;;;19.60;70.90;;;;;;5046859;28;911;-69
2022/11/12 13:37:11;;;;;;;;;;;19.60;71.70;;;;;;5050358;28;1421;-68
2022/11/12 13:39:37;;;;;;;;;;;19.60;70.90;;;;;;5048528;28;1740;-68
2022/11/12 13:44:57;;;;;;;;;;;19.60;70.90;;;;;;5053363;28;844;-68
2022/11/12 13:47:25;;;;;;;;;;;19.60;71.00;;;;;;5064323;28;949;-68
2022/11/12 13:49:50;;;;;;;;;;;19.60;71.00;;;;;;5059510;28;862;-68
2022/11/12 13:52:16;;;;;;;;;;;19.60;71.00;;;;;;5061736;28;781;-68
2022/11/12 13:54:41;;;;;;;;;;;19.60;71.00;;;;;;5046893;28;1404;-69
2022/11/12 13:57:12;;;;;;;;;;;19.60;71.00;;;;;;5063397;28;892;-68
2022/11/12 13:59:38;;;;;;;;;;;19.60;71.00;;;;;;5061111;28;1671;-68
2022/11/12 14:02:04;;;;;;;;;;;19.60;71.00;;;;;;5067769;28;1901;-69
2022/11/12 14:04:29;;;;;;;;;;;19.60;71.00;;;;;;5049313;28;1187;-68
2022/11/12 14:06:57;;;;;;;;;;;19.60;71.80;;;;;;5062612;28;927;-68
2022/11/12 14:09:23;;;;;;;;;;;19.60;71.00;;;;;;5059942;28;1999;-68
2022/11/12 14:12:01;;;;;;;;;;;19.60;71.00;;;;;;5063415;28;1833;-68
2022/11/12 14:14:26;;;;;;;;;;;19.60;71.00;;;;;;5046555;28;1743;-68
2022/11/12 14:16:58;;;;;;;;;;;19.60;71.10;;;;;;5064453;28;1846;-69
2022/11/12 14:19:24;;;;;;;;;;;19.60;71.00;;;;;;5045306;28;1383;-69
2022/11/12 14:22:08;;;;;;;;;;;19.60;71.10;;;;;;5064268;28;1957;-69
2022/11/12 14:24:33;;;;;;;;;;;19.60;71.10;;;;;;5050171;28;1552;-70
2022/11/12 14:26:58;;;;;;;;;;;19.60;71.10;;;;;;5028991;28;1372;-69
2022/11/12 14:29:24;;;;;;;;;;;19.60;71.10;;;;;;5064510;28;1755;-68
2022/11/12 14:31:58;;;;;;;;;;;19.60;71.10;;;;;;5061662;28;1448;-68
2022/11/12 14:34:27;;;;;;;;;;;19.50;71.10;;;;;;5044641;28;1283;-69
2022/11/12 14:36:54;;;;;;;;;;;19.60;71.10;;;;;;5061149;28;1226;-69
2022/11/12 14:39:20;;;;;;;;;;;19.60;71.10;;;;;;5064429;28;1361;-69
2022/11/12 14:41:48;;;;;;;;;;;19.50;71.10;;;;;;5045695;28;1960;-69
2022/11/12 14:44:18;;;;;;;;;;;19.60;71.10;;;;;;5051203;28;1539;-69
2022/11/12 14:46:43;;;;;;;;;;;19.50;71.10;;;;;;5047152;28;1558;-68
2022/11/12 14:49:23;;;;;;;;;;;19.50;71.10;;;;;;5062501;28;1395;-69
2022/11/12 14:51:51;;;;;;;;;;;19.60;71.10;;;;;;5065721;28;1670;-67
2022/11/12 14:54:27;;;;;;;;;;;19.60;71.20;;;;;;5062738;28;855;-68
2022/11/12 14:56:53;;;;;;;;;;;19.60;71.10;;;;;;5062876;28;1395;-68
2022/11/12 14:59:18;;;;;;;;;;;19.60;71.10;;;;;;5040833;28;1493;-68
2022/11/12 15:02:03;;;;;;;;;;;19.60;71.10;;;;;;5049508;28;1971;-68
2022/11/12 15:04:34;;;;;;;;;;;19.60;71.10;;;;;;5062098;28;1086;-69
2022/11/12 15:07:00;;;;;;;;;;;19.60;71.10;;;;;;5061749;28;1504;-70